sensor_id;sensor_type;location;lat;lon;timestamp;temperature;humidity
17762;DHT22;9005;48.838;10.112;2023-04-01T00:01:25;8.40;99.90
17762;DHT22;9005;48.838;10.112;2023-04-01T00:03:52;8.40;99.90
17762;DHT22;9005;48.838;10.112;2023-04-01T00:06:20;8.40;99.90
17762;DHT22;9005;48.838;10.112;2023-04-01T00:08:46;8.50;99.90
17762;DHT22;9005;48.838;10.112;2023-04-01T00:11:14;8.40;99.90
17762;DHT22;9005;48.838;10.112;2023-04-01T00:13:41;8.40;99.90
17762;DHT22;9005;48.838;10.112;2023-04-01T00:16:09;8.40;99.90
17762;DHT22;9005;48.838;10.112;2023-04-01T00:18:36;8.40;99.90
17762;DHT22;9005;48.838;10.112;2023-04-01T00:21:03;8.40;99.90
17762;DHT22;9005;48.838;10.112;2023-04-01T00:23:29;8.50;99.90
17762;DHT22;9005;48.838;10.112;2023-04-01T00:25:59;8.40;99.90
17762;DHT22;9005;48.838;10.112;2023-04-01T00:28:26;8.50;99.90
17762;DHT22;9005;48.838;10.112;2023-04-01T00:30:53;8.50;99.90
17762;DHT22;9005;48.838;10.112;2023-04-01T00:33:21;8.60;99.90
17762;DHT22;9005;48.838;10.112;2023-04-01T00:35:48;8.60;99.90
17762;DHT22;9005;48.838;10.112;2023-04-01T00:38:14;8.60;99.90
17762;DHT22;9005;48.838;10.112;2023-04-01T00:40:44;8.60;99.90
17762;DHT22;9005;48.838;10.112;2023-04-01T00:43:13;8.60;99.90
17762;DHT22;9005;48.838;10.112;2023-04-01T00:45:41;8.60;99.90
17762;DHT22;9005;48.838;10.112;2023-04-01T00:48:10;8.60;99.90
17762;DHT22;9005;48.838;10.112;2023-04-01T00:50:43;8.60;99.90
17762;DHT22;9005;48.838;10.112;2023-04-01T00:53:11;8.60;99.90
17762;DHT22;9005;48.838;10.112;2023-04-01T00:55:42;8.60;99.90
17762;DHT22;9005;48.838;10.112;2023-04-01T00:58:14;8.60;99.90
17762;DHT22;9005;48.838;10.112;2023-04-01T01:00:42;8.60;99.90
17762;DHT22;9005;48.838;10.112;2023-04-01T01:03:09;8.60;99.90
17762;DHT22;9005;48.838;10.112;2023-04-01T01:08:39;8.50;99.90
17762;DHT22;9005;48.838;10.112;2023-04-01T01:11:10;8.60;99.90
17762;DHT22;9005;48.838;10.112;2023-04-01T01:13:42;8.60;99.90
17762;DHT22;9005;48.838;10.112;2023-04-01T01:16:13;8.60;99.90
17762;DHT22;9005;48.838;10.112;2023-04-01T01:18:48;8.60;99.90
17762;DHT22;9005;48.838;10.112;2023-04-01T01:21:48;8.60;99.90
17762;DHT22;9005;48.838;10.112;2023-04-01T01:24:49;8.60;99.90
17762;DHT22;9005;48.838;10.112;2023-04-01T01:27:18;8.60;99.90
17762;DHT22;9005;48.838;10.112;2023-04-01T01:30:00;8.60;99.90
17762;DHT22;9005;48.838;10.112;2023-04-01T01:32:51;8.60;99.90
17762;DHT22;9005;48.838;10.112;2023-04-01T01:35:26;8.60;99.90
17762;DHT22;9005;48.838;10.112;2023-04-01T01:37:56;8.60;99.90
17762;DHT22;9005;48.838;10.112;2023-04-01T01:40:25;8.60;99.90
17762;DHT22;9005;48.838;10.112;2023-04-01T01:42:55;8.50;99.90
17762;DHT22;9005;48.838;10.112;2023-04-01T01:45:26;8.30;99.90
17762;DHT22;9005;48.838;10.112;2023-04-01T01:47:53;8.00;99.90
17762;DHT22;9005;48.838;10.112;2023-04-01T01:50:21;7.80;99.90
17762;DHT22;9005;48.838;10.112;2023-04-01T01:52:51;7.80;99.90
17762;DHT22;9005;48.838;10.112;2023-04-01T01:55:27;7.70;99.90
17762;DHT22;9005;48.838;10.112;2023-04-01T01:57:56;7.60;99.90
17762;DHT22;9005;48.838;10.112;2023-04-01T02:00:25;7.60;99.90
17762;DHT22;9005;48.838;10.112;2023-04-01T02:02:53;7.50;99.90
17762;DHT22;9005;48.838;10.112;2023-04-01T02:05:22;7.50;99.90
17762;DHT22;9005;48.838;10.112;2023-04-01T02:07:55;7.40;99.90
17762;DHT22;9005;48.838;10.112;2023-04-01T02:10:25;7.40;99.90
17762;DHT22;9005;48.838;10.112;2023-04-01T02:12:57;7.40;99.90
17762;DHT22;9005;48.838;10.112;2023-04-01T02:15:27;7.50;99.90
17762;DHT22;9005;48.838;10.112;2023-04-01T02:17:56;7.50;99.90
17762;DHT22;9005;48.838;10.112;2023-04-01T02:20:24;7.60;99.90
17762;DHT22;9005;48.838;10.112;2023-04-01T02:22:54;7.60;99.90
17762;DHT22;9005;48.838;10.112;2023-04-01T02:25:25;7.60;99.90
17762;DHT22;9005;48.838;10.112;2023-04-01T02:27:53;7.40;99.90
17762;DHT22;9005;48.838;10.112;2023-04-01T02:30:21;7.30;99.90
17762;DHT22;9005;48.838;10.112;2023-04-01T02:32:49;7.20;99.90
17762;DHT22;9005;48.838;10.112;2023-04-01T02:35:16;7.00;99.90
17762;DHT22;9005;48.838;10.112;2023-04-01T02:37:45;6.90;99.90
17762;DHT22;9005;48.838;10.112;2023-04-01T02:40:16;6.90;99.90
17762;DHT22;9005;48.838;10.112;2023-04-01T02:42:43;6.90;99.90
17762;DHT22;9005;48.838;10.112;2023-04-01T02:45:11;6.80;99.90
17762;DHT22;9005;48.838;10.112;2023-04-01T02:47:38;6.80;99.90
17762;DHT22;9005;48.838;10.112;2023-04-01T02:50:06;6.70;99.90
17762;DHT22;9005;48.838;10.112;2023-04-01T02:52:33;6.70;99.90
17762;DHT22;9005;48.838;10.112;2023-04-01T02:55:00;6.70;99.90
17762;DHT22;9005;48.838;10.112;2023-04-01T02:57:28;6.70;99.90
17762;DHT22;9005;48.838;10.112;2023-04-01T02:59:55;6.80;99.90
17762;DHT22;9005;48.838;10.112;2023-04-01T03:02:21;6.80;99.90
17762;DHT22;9005;48.838;10.112;2023-04-01T03:04:48;6.80;99.90
17762;DHT22;9005;48.838;10.112;2023-04-01T03:07:15;6.90;99.90
17762;DHT22;9005;48.838;10.112;2023-04-01T03:09:41;6.90;99.90
17762;DHT22;9005;48.838;10.112;2023-04-01T03:12:08;7.00;99.90
17762;DHT22;9005;48.838;10.112;2023-04-01T03:14:36;7.10;99.90
17762;DHT22;9005;48.838;10.112;2023-04-01T03:17:03;7.10;99.90
17762;DHT22;9005;48.838;10.112;2023-04-01T03:19:30;7.20;99.90
17762;DHT22;9005;48.838;10.112;2023-04-01T03:21:57;7.10;99.90
17762;DHT22;9005;48.838;10.112;2023-04-01T03:24:24;7.10;99.90
17762;DHT22;9005;48.838;10.112;2023-04-01T03:26:50;7.10;99.90
17762;DHT22;9005;48.838;10.112;2023-04-01T03:29:17;7.30;99.90
17762;DHT22;9005;48.838;10.112;2023-04-01T03:31:45;7.30;99.90
17762;DHT22;9005;48.838;10.112;2023-04-01T03:34:12;7.30;99.90
17762;DHT22;9005;48.838;10.112;2023-04-01T03:36:38;7.30;99.90
17762;DHT22;9005;48.838;10.112;2023-04-01T03:39:05;7.30;99.90
17762;DHT22;9005;48.838;10.112;2023-04-01T03:41:32;7.30;99.90
17762;DHT22;9005;48.838;10.112;2023-04-01T03:43:59;7.20;99.90
17762;DHT22;9005;48.838;10.112;2023-04-01T03:46:25;7.30;99.90
17762;DHT22;9005;48.838;10.112;2023-04-01T03:48:53;7.20;99.90
17762;DHT22;9005;48.838;10.112;2023-04-01T03:51:20;7.30;99.90
17762;DHT22;9005;48.838;10.112;2023-04-01T03:53:47;7.30;99.90
17762;DHT22;9005;48.838;10.112;2023-04-01T03:56:13;7.30;99.90
17762;DHT22;9005;48.838;10.112;2023-04-01T03:58:40;7.30;99.90
17762;DHT22;9005;48.838;10.112;2023-04-01T04:01:14;7.40;99.90
17762;DHT22;9005;48.838;10.112;2023-04-01T04:03:41;7.40;99.90
17762;DHT22;9005;48.838;10.112;2023-04-01T04:06:12;7.40;99.90
17762;DHT22;9005;48.838;10.112;2023-04-01T04:08:39;7.50;99.90
17762;DHT22;9005;48.838;10.112;2023-04-01T04:11:07;7.50;99.90
17762;DHT22;9005;48.838;10.112;2023-04-01T04:13:34;7.50;99.90
17762;DHT22;9005;48.838;10.112;2023-04-01T04:16:01;7.60;99.90
17762;DHT22;9005;48.838;10.112;2023-04-01T04:18:28;7.50;99.90
17762;DHT22;9005;48.838;10.112;2023-04-01T04:20:55;7.50;99.90
17762;DHT22;9005;48.838;10.112;2023-04-01T04:23:23;7.50;99.90
17762;DHT22;9005;48.838;10.112;2023-04-01T04:25:54;7.50;99.90
17762;DHT22;9005;48.838;10.112;2023-04-01T04:28:21;7.50;99.90
17762;DHT22;9005;48.838;10.112;2023-04-01T04:30:48;7.50;99.90
17762;DHT22;9005;48.838;10.112;2023-04-01T04:33:15;7.50;99.90
17762;DHT22;9005;48.838;10.112;2023-04-01T04:35:41;7.50;99.90
17762;DHT22;9005;48.838;10.112;2023-04-01T04:38:08;7.50;99.90
17762;DHT22;9005;48.838;10.112;2023-04-01T04:40:37;7.50;99.90
17762;DHT22;9005;48.838;10.112;2023-04-01T04:43:04;7.50;99.90
17762;DHT22;9005;48.838;10.112;2023-04-01T04:45:31;7.40;99.90
17762;DHT22;9005;48.838;10.112;2023-04-01T04:47:58;7.30;99.90
17762;DHT22;9005;48.838;10.112;2023-04-01T04:50:25;7.20;99.90
17762;DHT22;9005;48.838;10.112;2023-04-01T04:52:51;7.20;99.90
17762;DHT22;9005;48.838;10.112;2023-04-01T04:55:18;7.20;99.90
17762;DHT22;9005;48.838;10.112;2023-04-01T04:57:46;7.20;99.90
17762;DHT22;9005;48.838;10.112;2023-04-01T05:00:13;7.30;99.90
17762;DHT22;9005;48.838;10.112;2023-04-01T05:02:40;7.30;99.90
17762;DHT22;9005;48.838;10.112;2023-04-01T05:05:07;7.40;99.90
17762;DHT22;9005;48.838;10.112;2023-04-01T05:07:34;7.40;99.90
17762;DHT22;9005;48.838;10.112;2023-04-01T05:10:01;7.40;99.90
17762;DHT22;9005;48.838;10.112;2023-04-01T05:12:28;7.40;99.90
17762;DHT22;9005;48.838;10.112;2023-04-01T05:14:56;7.50;99.90
17762;DHT22;9005;48.838;10.112;2023-04-01T05:17:22;7.50;99.90
17762;DHT22;9005;48.838;10.112;2023-04-01T05:19:49;7.60;99.90
17762;DHT22;9005;48.838;10.112;2023-04-01T05:22:16;7.60;99.90
17762;DHT22;9005;48.838;10.112;2023-04-01T05:24:43;7.60;99.90
17762;DHT22;9005;48.838;10.112;2023-04-01T05:27:09;7.70;99.90
17762;DHT22;9005;48.838;10.112;2023-04-01T05:29:36;7.70;99.90
17762;DHT22;9005;48.838;10.112;2023-04-01T05:32:04;7.70;99.90
17762;DHT22;9005;48.838;10.112;2023-04-01T05:34:31;7.80;99.90
17762;DHT22;9005;48.838;10.112;2023-04-01T05:36:58;7.80;99.90
17762;DHT22;9005;48.838;10.112;2023-04-01T05:39:24;7.90;99.90
17762;DHT22;9005;48.838;10.112;2023-04-01T05:41:51;7.90;99.90
17762;DHT22;9005;48.838;10.112;2023-04-01T05:44:18;8.00;99.90
17762;DHT22;9005;48.838;10.112;2023-04-01T05:46:45;8.00;99.90
17762;DHT22;9005;48.838;10.112;2023-04-01T05:49:13;8.00;99.90
17762;DHT22;9005;48.838;10.112;2023-04-01T05:51:40;8.00;99.90
17762;DHT22;9005;48.838;10.112;2023-04-01T05:54:06;8.10;99.90
17762;DHT22;9005;48.838;10.112;2023-04-01T05:56:33;8.10;99.90
17762;DHT22;9005;48.838;10.112;2023-04-01T05:59:00;8.10;99.90
17762;DHT22;9005;48.838;10.112;2023-04-01T06:01:27;8.20;99.90
17762;DHT22;9005;48.838;10.112;2023-04-01T06:03:58;8.20;99.90
17762;DHT22;9005;48.838;10.112;2023-04-01T06:06:33;8.20;99.90
17762;DHT22;9005;48.838;10.112;2023-04-01T06:09:16;8.20;99.90
17762;DHT22;9005;48.838;10.112;2023-04-01T06:11:55;8.20;99.90
17762;DHT22;9005;48.838;10.112;2023-04-01T06:14:33;8.30;99.90
17762;DHT22;9005;48.838;10.112;2023-04-01T06:17:14;8.30;99.90
17762;DHT22;9005;48.838;10.112;2023-04-01T06:19:48;8.70;99.90
17762;DHT22;9005;48.838;10.112;2023-04-01T06:22:26;8.40;99.90
17762;DHT22;9005;48.838;10.112;2023-04-01T06:25:07;8.40;99.90
17762;DHT22;9005;48.838;10.112;2023-04-01T06:27:48;8.40;99.90
17762;DHT22;9005;48.838;10.112;2023-04-01T06:46:11;8.90;99.90
17762;DHT22;9005;48.838;10.112;2023-04-01T06:48:53;8.90;99.90
17762;DHT22;9005;48.838;10.112;2023-04-01T06:51:30;8.80;99.90
17762;DHT22;9005;48.838;10.112;2023-04-01T06:54:05;8.80;99.90
17762;DHT22;9005;48.838;10.112;2023-04-01T06:56:33;8.80;99.90
17762;DHT22;9005;48.838;10.112;2023-04-01T06:59:02;8.80;99.90
17762;DHT22;9005;48.838;10.112;2023-04-01T07:01:35;8.80;99.90
17762;DHT22;9005;48.838;10.112;2023-04-01T07:04:06;8.80;99.90
17762;DHT22;9005;48.838;10.112;2023-04-01T07:06:39;8.90;99.90
17762;DHT22;9005;48.838;10.112;2023-04-01T07:09:12;8.90;99.90
17762;DHT22;9005;48.838;10.112;2023-04-01T07:11:41;8.90;99.90
17762;DHT22;9005;48.838;10.112;2023-04-01T07:14:16;8.90;99.90
17762;DHT22;9005;48.838;10.112;2023-04-01T07:16:46;9.00;99.90
17762;DHT22;9005;48.838;10.112;2023-04-01T07:19:18;8.90;99.90
17762;DHT22;9005;48.838;10.112;2023-04-01T07:21:49;8.90;99.90
17762;DHT22;9005;48.838;10.112;2023-04-01T07:24:23;8.90;99.90
17762;DHT22;9005;48.838;10.112;2023-04-01T07:26:54;8.90;99.90
17762;DHT22;9005;48.838;10.112;2023-04-01T07:29:21;8.80;99.90
17762;DHT22;9005;48.838;10.112;2023-04-01T07:37:29;8.80;99.90
17762;DHT22;9005;48.838;10.112;2023-04-01T07:40:04;8.70;99.90
17762;DHT22;9005;48.838;10.112;2023-04-01T07:42:39;8.70;99.90
17762;DHT22;9005;48.838;10.112;2023-04-01T07:45:14;8.60;99.90
17762;DHT22;9005;48.838;10.112;2023-04-01T07:47:56;8.70;99.90
17762;DHT22;9005;48.838;10.112;2023-04-01T07:50:29;8.60;99.90
17762;DHT22;9005;48.838;10.112;2023-04-01T07:53:07;8.60;99.90
17762;DHT22;9005;48.838;10.112;2023-04-01T07:55:42;8.50;99.90
17762;DHT22;9005;48.838;10.112;2023-04-01T07:58:17;8.50;99.90
17762;DHT22;9005;48.838;10.112;2023-04-01T08:00:51;8.30;99.90
17762;DHT22;9005;48.838;10.112;2023-04-01T08:03:34;8.10;99.90
17762;DHT22;9005;48.838;10.112;2023-04-01T08:06:10;8.00;99.90
17762;DHT22;9005;48.838;10.112;2023-04-01T08:08:46;7.90;99.90
17762;DHT22;9005;48.838;10.112;2023-04-01T08:11:28;7.90;99.90
17762;DHT22;9005;48.838;10.112;2023-04-01T08:14:01;7.80;99.90
17762;DHT22;9005;48.838;10.112;2023-04-01T08:16:35;7.80;99.90
17762;DHT22;9005;48.838;10.112;2023-04-01T08:19:09;7.70;99.90
17762;DHT22;9005;48.838;10.112;2023-04-01T08:21:42;7.70;99.90
17762;DHT22;9005;48.838;10.112;2023-04-01T08:24:16;7.70;99.90
17762;DHT22;9005;48.838;10.112;2023-04-01T08:26:49;7.60;99.90
17762;DHT22;9005;48.838;10.112;2023-04-01T08:29:21;7.70;99.90
17762;DHT22;9005;48.838;10.112;2023-04-01T08:31:53;7.70;99.90
17762;DHT22;9005;48.838;10.112;2023-04-01T08:34:23;7.70;99.90
17762;DHT22;9005;48.838;10.112;2023-04-01T08:36:57;7.70;99.90
17762;DHT22;9005;48.838;10.112;2023-04-01T08:39:30;7.70;99.90
17762;DHT22;9005;48.838;10.112;2023-04-01T08:42:23;7.70;99.90
17762;DHT22;9005;48.838;10.112;2023-04-01T08:45:07;7.70;99.90
17762;DHT22;9005;48.838;10.112;2023-04-01T08:50:57;7.70;99.90
17762;DHT22;9005;48.838;10.112;2023-04-01T08:53:36;7.70;99.90
17762;DHT22;9005;48.838;10.112;2023-04-01T08:56:12;7.70;99.90
17762;DHT22;9005;48.838;10.112;2023-04-01T08:59:23;7.70;99.90
17762;DHT22;9005;48.838;10.112;2023-04-01T09:02:21;7.70;99.90
17762;DHT22;9005;48.838;10.112;2023-04-01T09:05:21;7.70;99.90
17762;DHT22;9005;48.838;10.112;2023-04-01T09:08:01;7.80;99.90
17762;DHT22;9005;48.838;10.112;2023-04-01T09:10:43;7.80;99.90
17762;DHT22;9005;48.838;10.112;2023-04-01T09:13:42;7.70;99.90
17762;DHT22;9005;48.838;10.112;2023-04-01T09:16:23;7.70;99.90
17762;DHT22;9005;48.838;10.112;2023-04-01T09:19:15;7.70;99.90
17762;DHT22;9005;48.838;10.112;2023-04-01T09:22:05;7.60;99.90
17762;DHT22;9005;48.838;10.112;2023-04-01T09:24:52;7.10;99.90
17762;DHT22;9005;48.838;10.112;2023-04-01T09:27:28;7.50;99.90
17762;DHT22;9005;48.838;10.112;2023-04-01T09:30:28;7.40;99.90
17762;DHT22;9005;48.838;10.112;2023-04-01T09:36:04;7.40;99.90
17762;DHT22;9005;48.838;10.112;2023-04-01T09:38:40;7.40;99.90
17762;DHT22;9005;48.838;10.112;2023-04-01T09:41:17;7.50;99.90
17762;DHT22;9005;48.838;10.112;2023-04-01T09:44:02;7.50;99.90
17762;DHT22;9005;48.838;10.112;2023-04-01T09:46:40;7.60;99.90
17762;DHT22;9005;48.838;10.112;2023-04-01T09:52:10;7.60;99.90
17762;DHT22;9005;48.838;10.112;2023-04-01T09:54:55;7.50;99.90
17762;DHT22;9005;48.838;10.112;2023-04-01T10:00:40;7.20;99.90
17762;DHT22;9005;48.838;10.112;2023-04-01T10:03:48;7.20;99.90
17762;DHT22;9005;48.838;10.112;2023-04-01T10:06:48;7.20;99.90
17762;DHT22;9005;48.838;10.112;2023-04-01T10:09:48;7.20;99.90
17762;DHT22;9005;48.838;10.112;2023-04-01T10:15:49;7.00;99.90
17762;DHT22;9005;48.838;10.112;2023-04-01T10:22:02;7.10;99.90
17762;DHT22;9005;48.838;10.112;2023-04-01T10:30:46;7.00;99.90
17762;DHT22;9005;48.838;10.112;2023-04-01T10:33:38;7.10;99.90
17762;DHT22;9005;48.838;10.112;2023-04-01T10:36:35;7.10;99.90
17762;DHT22;9005;48.838;10.112;2023-04-01T10:39:33;7.20;99.90
17762;DHT22;9005;48.838;10.112;2023-04-01T10:42:34;7.20;99.90
17762;DHT22;9005;48.838;10.112;2023-04-01T10:45:27;7.20;99.90
17762;DHT22;9005;48.838;10.112;2023-04-01T10:48:18;7.30;99.90
17762;DHT22;9005;48.838;10.112;2023-04-01T10:51:04;7.30;99.90
17762;DHT22;9005;48.838;10.112;2023-04-01T10:54:02;7.30;99.90
17762;DHT22;9005;48.838;10.112;2023-04-01T10:56:43;7.20;99.90
17762;DHT22;9005;48.838;10.112;2023-04-01T11:02:46;7.30;99.90
17762;DHT22;9005;48.838;10.112;2023-04-01T11:05:45;7.30;99.90
17762;DHT22;9005;48.838;10.112;2023-04-01T11:18:08;7.40;99.90
17762;DHT22;9005;48.838;10.112;2023-04-01T11:23:49;7.50;99.90
17762;DHT22;9005;48.838;10.112;2023-04-01T11:26:26;7.40;99.90
17762;DHT22;9005;48.838;10.112;2023-04-01T11:29:07;7.40;99.90
17762;DHT22;9005;48.838;10.112;2023-04-01T11:31:50;7.50;99.90
17762;DHT22;9005;48.838;10.112;2023-04-01T11:34:32;7.50;99.90
17762;DHT22;9005;48.838;10.112;2023-04-01T11:37:11;7.40;99.90
17762;DHT22;9005;48.838;10.112;2023-04-01T11:39:46;7.30;99.90
17762;DHT22;9005;48.838;10.112;2023-04-01T11:42:20;7.30;99.90
17762;DHT22;9005;48.838;10.112;2023-04-01T11:44:58;7.30;99.90
17762;DHT22;9005;48.838;10.112;2023-04-01T11:47:56;7.20;99.90
17762;DHT22;9005;48.838;10.112;2023-04-01T11:50:33;7.30;99.90
17762;DHT22;9005;48.838;10.112;2023-04-01T11:53:16;7.30;99.90
17762;DHT22;9005;48.838;10.112;2023-04-01T11:55:56;7.30;99.90
17762;DHT22;9005;48.838;10.112;2023-04-01T11:58:44;8.60;99.90
17762;DHT22;9005;48.838;10.112;2023-04-01T12:01:29;7.20;99.90
17762;DHT22;9005;48.838;10.112;2023-04-01T12:07:09;7.20;99.90
17762;DHT22;9005;48.838;10.112;2023-04-01T12:09:44;7.20;99.90
17762;DHT22;9005;48.838;10.112;2023-04-01T12:12:20;7.20;99.90
17762;DHT22;9005;48.838;10.112;2023-04-01T12:14:59;7.30;99.90
17762;DHT22;9005;48.838;10.112;2023-04-01T12:17:34;7.30;99.90
17762;DHT22;9005;48.838;10.112;2023-04-01T12:20:21;7.40;99.90
17762;DHT22;9005;48.838;10.112;2023-04-01T12:22:55;7.40;99.90
17762;DHT22;9005;48.838;10.112;2023-04-01T12:25:35;7.40;99.90
17762;DHT22;9005;48.838;10.112;2023-04-01T12:28:10;7.50;99.90
17762;DHT22;9005;48.838;10.112;2023-04-01T12:30:51;7.50;99.90
17762;DHT22;9005;48.838;10.112;2023-04-01T12:33:45;7.50;99.90
17762;DHT22;9005;48.838;10.112;2023-04-01T12:36:23;7.60;99.90
17762;DHT22;9005;48.838;10.112;2023-04-01T12:39:11;7.60;99.90
17762;DHT22;9005;48.838;10.112;2023-04-01T12:41:48;7.70;99.90
17762;DHT22;9005;48.838;10.112;2023-04-01T12:44:33;7.70;99.90
17762;DHT22;9005;48.838;10.112;2023-04-01T12:50:19;7.70;99.90
17762;DHT22;9005;48.838;10.112;2023-04-01T12:53:01;7.70;99.90
17762;DHT22;9005;48.838;10.112;2023-04-01T12:55:38;7.60;99.90
17762;DHT22;9005;48.838;10.112;2023-04-01T12:58:42;7.70;99.90
17762;DHT22;9005;48.838;10.112;2023-04-01T13:01:34;7.80;99.90
17762;DHT22;9005;48.838;10.112;2023-04-01T13:04:36;7.80;99.90
17762;DHT22;9005;48.838;10.112;2023-04-01T13:07:26;9.40;99.90
17762;DHT22;9005;48.838;10.112;2023-04-01T13:10:02;7.80;99.90
17762;DHT22;9005;48.838;10.112;2023-04-01T13:15:28;8.10;99.90
17762;DHT22;9005;48.838;10.112;2023-04-01T13:18:07;8.00;99.90
17762;DHT22;9005;48.838;10.112;2023-04-01T13:20:44;8.00;99.90
17762;DHT22;9005;48.838;10.112;2023-04-01T13:23:24;8.10;99.90
17762;DHT22;9005;48.838;10.112;2023-04-01T13:26:06;8.10;99.90
17762;DHT22;9005;48.838;10.112;2023-04-01T13:28:38;8.10;99.90
17762;DHT22;9005;48.838;10.112;2023-04-01T13:31:08;8.00;99.90
17762;DHT22;9005;48.838;10.112;2023-04-01T13:33:42;8.00;99.90
17762;DHT22;9005;48.838;10.112;2023-04-01T13:36:19;8.10;99.90
17762;DHT22;9005;48.838;10.112;2023-04-01T13:39:17;8.10;99.90
17762;DHT22;9005;48.838;10.112;2023-04-01T13:42:06;8.10;99.90
17762;DHT22;9005;48.838;10.112;2023-04-01T13:44:40;8.10;99.90
17762;DHT22;9005;48.838;10.112;2023-04-01T13:50:17;8.10;99.90
17762;DHT22;9005;48.838;10.112;2023-04-01T13:55:59;8.10;99.90
17762;DHT22;9005;48.838;10.112;2023-04-01T13:58:39;8.00;99.90
17762;DHT22;9005;48.838;10.112;2023-04-01T14:01:13;8.00;99.90
17762;DHT22;9005;48.838;10.112;2023-04-01T14:04:06;8.00;99.90
17762;DHT22;9005;48.838;10.112;2023-04-01T14:06:51;8.00;99.90
17762;DHT22;9005;48.838;10.112;2023-04-01T14:09:33;8.00;99.90
17762;DHT22;9005;48.838;10.112;2023-04-01T14:12:06;8.00;99.90
17762;DHT22;9005;48.838;10.112;2023-04-01T14:14:49;7.90;99.90
17762;DHT22;9005;48.838;10.112;2023-04-01T14:17:27;7.90;99.90
17762;DHT22;9005;48.838;10.112;2023-04-01T14:20:20;7.90;99.90
17762;DHT22;9005;48.838;10.112;2023-04-01T14:22:59;7.80;99.90
17762;DHT22;9005;48.838;10.112;2023-04-01T14:25:46;7.80;99.90
17762;DHT22;9005;48.838;10.112;2023-04-01T14:28:27;7.70;99.90
17762;DHT22;9005;48.838;10.112;2023-04-01T14:31:13;7.80;99.90
17762;DHT22;9005;48.838;10.112;2023-04-01T14:33:47;7.80;99.90
17762;DHT22;9005;48.838;10.112;2023-04-01T14:36:32;7.90;99.90
17762;DHT22;9005;48.838;10.112;2023-04-01T14:39:15;7.80;99.90
17762;DHT22;9005;48.838;10.112;2023-04-01T14:41:48;7.70;99.90
17762;DHT22;9005;48.838;10.112;2023-04-01T15:23:21;7.70;99.90
17762;DHT22;9005;48.838;10.112;2023-04-01T15:26:17;7.60;99.90
17762;DHT22;9005;48.838;10.112;2023-04-01T15:28:55;7.60;99.90
17762;DHT22;9005;48.838;10.112;2023-04-01T15:31:29;8.20;99.90
17762;DHT22;9005;48.838;10.112;2023-04-01T15:34:11;7.70;99.90
17762;DHT22;9005;48.838;10.112;2023-04-01T15:36:44;7.60;99.90
17762;DHT22;9005;48.838;10.112;2023-04-01T15:39:14;7.70;99.90
17762;DHT22;9005;48.838;10.112;2023-04-01T15:42:04;7.70;99.90
17762;DHT22;9005;48.838;10.112;2023-04-01T15:44:48;7.60;99.90
17762;DHT22;9005;48.838;10.112;2023-04-01T15:47:31;7.60;99.90
17762;DHT22;9005;48.838;10.112;2023-04-01T15:50:21;7.60;99.90
17762;DHT22;9005;48.838;10.112;2023-04-01T15:53:03;7.60;99.90
17762;DHT22;9005;48.838;10.112;2023-04-01T15:55:37;7.60;99.90
17762;DHT22;9005;48.838;10.112;2023-04-01T15:58:37;7.60;99.90
17762;DHT22;9005;48.838;10.112;2023-04-01T16:01:15;7.60;99.90
17762;DHT22;9005;48.838;10.112;2023-04-01T16:03:51;7.70;99.90
17762;DHT22;9005;48.838;10.112;2023-04-01T16:09:37;7.60;99.90
17762;DHT22;9005;48.838;10.112;2023-04-01T16:12:11;7.60;99.90
17762;DHT22;9005;48.838;10.112;2023-04-01T16:14:49;7.60;99.90
17762;DHT22;9005;48.838;10.112;2023-04-01T16:17:34;7.60;99.90
17762;DHT22;9005;48.838;10.112;2023-04-01T16:20:14;7.60;99.90
17762;DHT22;9005;48.838;10.112;2023-04-01T16:22:49;7.70;99.90
17762;DHT22;9005;48.838;10.112;2023-04-01T16:25:24;7.50;99.90
17762;DHT22;9005;48.838;10.112;2023-04-01T16:28:09;7.50;99.90
17762;DHT22;9005;48.838;10.112;2023-04-01T16:30:44;7.50;99.90
17762;DHT22;9005;48.838;10.112;2023-04-01T16:33:17;7.40;99.90
17762;DHT22;9005;48.838;10.112;2023-04-01T16:35:54;7.40;99.90
17762;DHT22;9005;48.838;10.112;2023-04-01T16:38:25;7.40;99.90
17762;DHT22;9005;48.838;10.112;2023-04-01T16:41:03;7.40;99.90
17762;DHT22;9005;48.838;10.112;2023-04-01T16:43:39;7.40;99.90
17762;DHT22;9005;48.838;10.112;2023-04-01T16:46:29;7.40;99.90
17762;DHT22;9005;48.838;10.112;2023-04-01T16:49:08;7.40;99.90
17762;DHT22;9005;48.838;10.112;2023-04-01T16:51:46;7.40;99.90
17762;DHT22;9005;48.838;10.112;2023-04-01T16:54:25;7.30;99.90
17762;DHT22;9005;48.838;10.112;2023-04-01T16:56:56;7.30;99.90
17762;DHT22;9005;48.838;10.112;2023-04-01T16:59:35;7.30;99.90
17762;DHT22;9005;48.838;10.112;2023-04-01T17:02:07;7.30;99.90
17762;DHT22;9005;48.838;10.112;2023-04-01T17:04:39;7.30;99.90
17762;DHT22;9005;48.838;10.112;2023-04-01T17:07:20;7.30;99.90
17762;DHT22;9005;48.838;10.112;2023-04-01T17:10:00;7.30;99.90
17762;DHT22;9005;48.838;10.112;2023-04-01T17:12:36;7.20;99.90
17762;DHT22;9005;48.838;10.112;2023-04-01T17:15:12;7.20;99.90
17762;DHT22;9005;48.838;10.112;2023-04-01T17:17:51;7.20;99.90
17762;DHT22;9005;48.838;10.112;2023-04-01T17:20:32;7.20;99.90
17762;DHT22;9005;48.838;10.112;2023-04-01T17:23:16;7.20;99.90
17762;DHT22;9005;48.838;10.112;2023-04-01T17:26:04;7.20;99.90
17762;DHT22;9005;48.838;10.112;2023-04-01T17:28:44;7.20;99.90
17762;DHT22;9005;48.838;10.112;2023-04-01T17:34:18;7.20;99.90
17762;DHT22;9005;48.838;10.112;2023-04-01T17:37:02;7.20;99.90
17762;DHT22;9005;48.838;10.112;2023-04-01T17:39:51;7.20;99.90
17762;DHT22;9005;48.838;10.112;2023-04-01T17:42:26;7.20;99.90
17762;DHT22;9005;48.838;10.112;2023-04-01T17:45:00;7.10;99.90
17762;DHT22;9005;48.838;10.112;2023-04-01T17:47:41;7.20;99.90
17762;DHT22;9005;48.838;10.112;2023-04-01T17:50:22;7.20;99.90
17762;DHT22;9005;48.838;10.112;2023-04-01T17:52:59;7.20;99.90
17762;DHT22;9005;48.838;10.112;2023-04-01T17:55:47;7.10;99.90
17762;DHT22;9005;48.838;10.112;2023-04-01T17:58:19;7.10;99.90
17762;DHT22;9005;48.838;10.112;2023-04-01T18:01:04;7.10;99.90
17762;DHT22;9005;48.838;10.112;2023-04-01T18:04:08;7.10;99.90
17762;DHT22;9005;48.838;10.112;2023-04-01T18:06:48;7.10;99.90
17762;DHT22;9005;48.838;10.112;2023-04-01T18:09:26;7.10;99.90
17762;DHT22;9005;48.838;10.112;2023-04-01T18:12:09;7.10;99.90
17762;DHT22;9005;48.838;10.112;2023-04-01T18:22:39;7.30;99.90
17762;DHT22;9005;48.838;10.112;2023-04-01T18:25:17;7.30;99.90
17762;DHT22;9005;48.838;10.112;2023-04-01T18:27:50;7.20;99.90
17762;DHT22;9005;48.838;10.112;2023-04-01T18:30:21;7.10;99.90
17762;DHT22;9005;48.838;10.112;2023-04-01T18:32:56;7.10;99.90
17762;DHT22;9005;48.838;10.112;2023-04-01T18:35:29;7.10;99.90
17762;DHT22;9005;48.838;10.112;2023-04-01T18:38:03;7.10;99.90
17762;DHT22;9005;48.838;10.112;2023-04-01T18:40:35;7.10;99.90
17762;DHT22;9005;48.838;10.112;2023-04-01T18:43:12;7.10;99.90
17762;DHT22;9005;48.838;10.112;2023-04-01T18:45:45;7.10;99.90
17762;DHT22;9005;48.838;10.112;2023-04-01T18:48:22;7.10;99.90
17762;DHT22;9005;48.838;10.112;2023-04-01T18:50:55;7.10;99.90
17762;DHT22;9005;48.838;10.112;2023-04-01T18:53:27;7.10;99.90